Time;durP1;ratioP1;P1;durP2;ratioP2;P2;SDS_P1;SDS_P2;PMS_P1;PMS_P2;Temp;Humidity;BMP_temperature;BMP_pressure;BME280_temperature;BME280_humidity;BME280_pressure;Samples;Min_cycle;Max_cycle;Signal;HPM_P1;HPM_P2
2023/05/31 00:00:53;;;;;;;4.07;2.00;;;;;;;11.34;68.17;101809.78;5035454;28;20224;-70
2023/05/31 00:03:19;;;;;;;2.90;1.80;;;;;;;11.28;68.38;101810.22;5029624;28;20222;-70
2023/05/31 00:05:46;;;;;;;4.50;2.23;;;;;;;11.23;68.34;101805.81;5029748;28;20281;-70
2023/05/31 00:08:12;;;;;;;2.63;1.70;;;;;;;11.17;68.41;101803.56;5029582;28;20202;-70
2023/05/31 00:10:38;;;;;;;2.70;1.90;;;;;;;11.12;68.69;101807.13;5029501;28;20588;-70
2023/05/31 00:13:05;;;;;;;3.33;2.10;;;;;;;11.08;68.87;101808.81;5030064;28;20230;-70
2023/05/31 00:15:32;;;;;;;3.97;2.00;;;;;;;11.03;69.39;101805.50;5032200;28;20210;-70
2023/05/31 00:17:59;;;;;;;2.93;1.97;;;;;;;10.98;69.49;101800.31;5049634;28;20649;-70
2023/05/31 00:20:25;;;;;;;4.10;1.93;;;;;;;10.92;69.26;101807.56;5020677;28;20207;-70
2023/05/31 00:22:51;;;;;;;3.80;1.63;;;;;;;10.88;69.51;101797.91;5039823;28;20233;-70
2023/05/31 00:25:18;;;;;;;4.20;2.03;;;;;;;10.84;69.66;101812.78;5030541;28;20205;-70
2023/05/31 00:27:44;;;;;;;5.03;1.93;;;;;;;10.79;70.02;101816.31;5031809;28;20200;-70
2023/05/31 00:30:12;;;;;;;4.93;2.63;;;;;;;10.77;70.32;101820.34;5033580;28;20302;-70
2023/05/31 00:32:39;;;;;;;2.80;1.80;;;;;;;10.72;70.44;101809.88;5033269;28;20218;-70
2023/05/31 00:35:06;;;;;;;2.23;1.73;;;;;;;10.68;70.77;101816.81;5039620;28;20217;-71
2023/05/31 00:37:36;;;;;;;3.20;2.33;;;;;;;10.64;70.67;101813.19;5035327;28;20205;-70
2023/05/31 00:40:04;;;;;;;2.47;1.90;;;;;;;10.60;71.02;101804.28;5034543;28;20197;-70
2023/05/31 00:42:31;;;;;;;3.67;2.20;;;;;;;10.56;71.12;101811.28;5024654;28;20225;-70
2023/05/31 00:44:57;;;;;;;3.00;2.23;;;;;;;10.50;70.76;101818.50;5055256;28;20212;-69
2023/05/31 00:47:25;;;;;;;2.67;1.60;;;;;;;10.46;71.01;101816.75;5026625;28;20207;-70
2023/05/31 00:49:53;;;;;;;3.33;2.40;;;;;;;10.43;72.16;101815.47;5036456;28;20670;-70
2023/05/31 00:52:20;;;;;;;4.33;2.10;;;;;;;10.40;72.39;101833.78;5027757;28;20242;-70
2023/05/31 00:54:46;;;;;;;3.40;1.90;;;;;;;10.36;71.83;101827.50;5036474;28;20215;-70
2023/05/31 00:57:13;;;;;;;3.73;2.10;;;;;;;10.32;71.78;101822.03;5034145;28;20203;-70
2023/05/31 00:59:40;;;;;;;4.33;2.20;;;;;;;10.30;72.78;101823.41;5045297;28;20203;-70
2023/05/31 01:02:07;;;;;;;5.40;2.50;;;;;;;10.27;72.49;101818.69;5023189;28;20228;-70
2023/05/31 01:04:34;;;;;;;3.63;2.37;;;;;;;10.24;73.31;101820.06;5052600;28;20196;-70
2023/05/31 01:07:02;;;;;;;3.23;1.90;;;;;;;10.20;72.96;101823.59;5047572;28;20196;-70
2023/05/31 01:09:30;;;;;;;9.87;2.10;;;;;;;10.15;72.89;101819.16;5035122;28;20199;-70
2023/05/31 01:12:05;;;;;;;6.50;2.17;;;;;;;10.10;73.32;101818.50;5051579;28;20227;-70
2023/05/31 01:14:43;;;;;;;4.93;2.17;;;;;;;10.07;74.00;101822.50;5027558;28;20681;-70
2023/05/31 01:17:22;;;;;;;3.27;2.40;;;;;;;10.03;73.85;101832.03;5033656;28;20210;-70
2023/05/31 01:19:53;;;;;;;4.13;2.47;;;;;;;9.99;74.14;101836.31;5048742;28;20211;-69
2023/05/31 01:22:47;;;;;;;4.57;2.03;;;;;;;9.97;74.34;101827.13;5034644;28;20705;-70
2023/05/31 01:25:35;;;;;;;2.93;1.87;;;;;;;9.94;74.37;101827.72;5031259;28;20188;-70
2023/05/31 01:28:07;;;;;;;6.43;2.33;;;;;;;9.90;74.61;101824.91;5052551;28;20191;-69
2023/05/31 01:30:33;;;;;;;4.57;2.20;;;;;;;9.89;75.20;101822.53;5032714;28;20218;-70
2023/05/31 01:33:01;;;;;;;2.63;1.97;;;;;;;9.84;75.12;101823.38;5032068;28;20232;-70
2023/05/31 01:35:29;;;;;;;4.27;2.63;;;;;;;9.81;74.89;101823.19;5032261;28;20232;-70
2023/05/31 01:37:55;;;;;;;4.23;2.07;;;;;;;9.78;75.17;101816.63;5048728;28;20199;-70
2023/05/31 01:40:22;;;;;;;2.60;2.10;;;;;;;9.75;75.27;101821.72;5050060;28;20195;-70
2023/05/31 01:42:50;;;;;;;4.47;2.50;;;;;;;9.72;74.99;101817.81;5035456;28;20787;-70
2023/05/31 01:45:19;;;;;;;3.03;2.10;;;;;;;9.66;74.86;101821.59;5047974;28;20202;-69
2023/05/31 01:47:48;;;;;;;2.93;2.33;;;;;;;9.64;75.45;101823.72;5035233;28;20188;-70
2023/05/31 01:50:15;;;;;;;6.20;2.50;;;;;;;9.63;75.60;101818.75;5050051;28;20205;-70
2023/05/31 01:52:41;;;;;;;3.70;2.30;;;;;;;9.60;75.76;101824.59;5033401;28;20237;-70
2023/05/31 01:55:08;;;;;;;3.20;2.10;;;;;;;9.57;76.06;101825.19;5033740;28;20313;-70
2023/05/31 01:57:38;;;;;;;2.63;2.07;;;;;;;9.54;75.87;101823.91;5041866;28;20290;-70
2023/05/31 02:00:11;;;;;;;3.60;2.33;;;;;;;9.51;76.00;101821.03;5036009;28;20203;-70
2023/05/31 02:02:42;;;;;;;4.27;2.23;;;;;;;9.50;76.36;101822.13;5050359;28;20302;-70
2023/05/31 02:05:11;;;;;;;4.33;2.10;;;;;;;9.43;75.57;101819.06;5021493;28;20223;-70
2023/05/31 02:07:37;;;;;;;2.97;2.20;;;;;;;9.42;76.06;101814.88;5033034;28;20196;-69
2023/05/31 02:10:05;;;;;;;4.10;2.73;;;;;;;9.39;76.61;101820.72;5034277;28;20207;-70
2023/05/31 02:12:35;;;;;;;3.33;2.17;;;;;;;9.36;76.65;101810.72;5048770;28;20206;-69
2023/05/31 02:15:02;;;;;;;2.50;2.20;;;;;;;9.32;76.78;101813.16;5028589;28;20210;-70
2023/05/31 02:17:32;;;;;;;3.87;2.10;;;;;;;9.30;76.68;101814.53;5034058;28;20298;-69
2023/05/31 02:20:00;;;;;;;4.53;2.73;;;;;;;9.27;76.84;101807.19;5046622;28;20204;-70
2023/05/31 02:22:26;;;;;;;3.37;2.23;;;;;;;9.27;77.00;101815.09;5052932;28;20225;-70
2023/05/31 02:24:53;;;;;;;3.30;2.30;;;;;;;9.22;77.21;101815.19;5045723;28;20207;-70
2023/05/31 02:27:19;;;;;;;4.53;2.60;;;;;;;9.19;77.20;101821.81;5049405;28;20210;-70
2023/05/31 02:29:46;;;;;;;5.20;2.33;;;;;;;9.17;77.08;101818.66;5052153;28;20195;-70
2023/05/31 02:32:12;;;;;;;5.50;2.47;;;;;;;9.15;77.82;101810.25;5028746;28;20369;-70
2023/05/31 02:34:39;;;;;;;5.33;2.40;;;;;;;9.12;77.81;101808.19;5058018;28;20235;-70
2023/05/31 02:37:07;;;;;;;1.87;1.70;;;;;;;9.09;77.52;101814.03;5031806;28;20210;-69
2023/05/31 02:39:33;;;;;;;3.73;2.23;;;;;;;9.04;77.42;101814.13;5043992;28;20519;-70
2023/05/31 02:41:59;;;;;;;4.07;2.00;;;;;;;9.03;77.66;101820.47;5051162;28;20223;-69
2023/05/31 02:44:26;;;;;;;4.40;2.20;;;;;;;9.04;78.39;101819.38;5038729;28;20210;-70
2023/05/31 02:46:52;;;;;;;3.37;2.17;;;;;;;9.00;77.73;101817.63;5034065;28;20223;-69
2023/05/31 02:49:18;;;;;;;3.00;1.97;;;;;;;9.00;78.26;101813.09;5043584;28;20207;-70
2023/05/31 02:51:45;;;;;;;5.47;2.70;;;;;;;8.99;78.56;101813.38;5025748;28;20219;-70
2023/05/31 02:54:38;;;;;;;3.87;2.50;;;;;;;8.93;77.63;101804.78;5049431;28;20223;-70
2023/05/31 02:57:09;;;;;;;6.50;2.47;;;;;;;8.93;78.15;101810.06;5035722;28;20205;-70
2023/05/31 02:59:37;;;;;;;4.87;2.47;;;;;;;8.91;78.50;101809.53;5033450;28;20202;-70
2023/05/31 03:02:08;;;;;;;4.00;3.00;;;;;;;8.89;77.95;101805.63;5037813;28;20215;-70
2023/05/31 03:04:51;;;;;;;6.10;2.27;;;;;;;8.90;78.47;101805.34;5033215;28;20207;-69
2023/05/31 03:07:18;;;;;;;6.00;2.73;;;;;;;8.87;78.24;101808.56;5031710;28;20200;-70
2023/05/31 03:09:47;;;;;;;5.03;2.20;;;;;;;8.84;78.62;101814.38;5027078;28;20205;-69
2023/05/31 03:12:13;;;;;;;2.63;2.13;;;;;;;8.81;78.48;101808.91;5035299;28;20223;-70
2023/05/31 03:14:41;;;;;;;3.53;2.20;;;;;;;8.79;78.33;101811.03;5026424;28;20215;-70
2023/05/31 03:17:08;;;;;;;3.57;2.40;;;;;;;8.80;78.81;101812.59;5033226;28;20230;-70
2023/05/31 03:19:36;;;;;;;4.63;2.43;;;;;;;8.79;79.20;101816.28;5032855;28;20195;-70
2023/05/31 03:22:05;;;;;;;4.13;2.83;;;;;;;8.79;79.47;101821.56;5032575;28;20219;-70
2023/05/31 03:24:32;;;;;;;5.07;2.40;;;;;;;8.79;78.91;101813.66;5019142;28;20203;-70
2023/05/31 03:27:00;;;;;;;3.47;2.37;;;;;;;8.77;79.05;101819.22;5031967;28;20750;-70
2023/05/31 03:29:28;;;;;;;5.57;2.53;;;;;;;8.78;78.56;101820.78;5032936;28;20246;-70
2023/05/31 03:31:54;;;;;;;6.10;3.07;;;;;;;8.82;78.94;101824.44;5032267;28;20235;-70
2023/05/31 03:34:22;;;;;;;5.27;2.73;;;;;;;8.83;79.03;101819.94;5051038;28;20211;-70
2023/05/31 03:36:49;;;;;;;3.83;2.30;;;;;;;8.87;79.38;101813.03;5028731;28;20199;-70
2023/05/31 03:39:34;;;;;;;4.03;2.70;;;;;;;8.90;79.11;101823.00;5050028;28;20276;-69
2023/05/31 03:42:03;;;;;;;6.87;2.93;;;;;;;8.97;79.11;101823.44;5029049;28;20297;-70
2023/05/31 03:44:30;;;;;;;3.70;2.83;;;;;;;9.01;78.92;101827.06;5030337;28;20196;-70
2023/05/31 03:46:56;;;;;;;3.93;2.37;;;;;;;9.09;79.12;101829.06;5049892;28;20198;-70
2023/05/31 03:49:23;;;;;;;3.40;2.80;;;;;;;9.14;79.45;101829.00;5031947;28;20252;-69
2023/05/31 03:51:49;;;;;;;6.20;3.20;;;;;;;9.20;79.11;101825.22;5033311;28;20219;-70
2023/05/31 03:54:15;;;;;;;3.07;2.70;;;;;;;9.25;78.83;101825.94;5029884;28;20219;-70
2023/05/31 03:56:42;;;;;;;3.37;2.60;;;;;;;9.34;78.88;101832.13;5031404;28;20261;-70
2023/05/31 03:59:10;;;;;;;3.70;2.60;;;;;;;9.42;78.93;101822.78;5032496;28;20207;-70
2023/05/31 04:01:37;;;;;;;5.30;2.67;;;;;;;9.51;78.68;101831.59;5044102;28;20219;-70
2023/05/31 04:04:03;;;;;;;4.53;2.67;;;;;;;9.62;78.79;101831.16;5035072;28;20920;-70
2023/05/31 04:06:31;;;;;;;4.17;2.60;;;;;;;9.69;78.46;101834.19;5034451;28;20290;-70
2023/05/31 04:08:58;;;;;;;4.27;2.97;;;;;;;9.78;77.71;101840.38;5041198;28;20290;-70
2023/05/31 04:11:25;;;;;;;4.73;3.07;;;;;;;9.84;77.40;101831.31;5041513;28;20257;-70
2023/05/31 04:13:52;;;;;;;5.73;2.43;;;;;;;9.94;76.94;101839.03;5032512;28;20247;-70
2023/05/31 04:16:19;;;;;;;4.93;3.20;;;;;;;10.02;76.50;101840.25;5034308;28;20215;-70
2023/05/31 04:18:46;;;;;;;7.20;2.93;;;;;;;10.08;76.00;101841.75;5035415;28;20199;-70
2023/05/31 04:21:13;;;;;;;2.97;2.30;;;;;;;10.17;75.73;101842.63;5037237;28;20253;-70
2023/05/31 04:23:40;;;;;;;4.00;2.73;;;;;;;10.28;76.22;101836.09;5034537;28;20304;-70
2023/05/31 04:26:06;;;;;;;5.03;3.17;;;;;;;10.37;76.89;101845.69;5032831;28;20678;-69
2023/05/31 04:28:33;;;;;;;3.33;2.40;;;;;;;10.50;75.90;101842.25;5042279;28;20679;-70
2023/05/31 04:31:00;;;;;;;3.40;2.53;;;;;;;10.59;75.46;101839.72;5033963;28;20566;-70
2023/05/31 04:33:30;;;;;;;7.27;2.67;;;;;;;10.71;75.71;101834.75;5035771;28;20209;-70
2023/05/31 04:35:58;;;;;;;4.93;2.70;;;;;;;10.84;75.28;101847.13;5032733;28;20222;-70
2023/05/31 04:38:27;;;;;;;4.50;2.93;;;;;;;10.95;75.51;101843.19;5035920;28;20209;-70
2023/05/31 04:40:55;;;;;;;4.23;2.40;;;;;;;11.08;74.30;101845.03;5030745;28;20208;-70
2023/05/31 04:43:22;;;;;;;5.33;3.10;;;;;;;11.20;74.53;101847.94;5034762;28;20224;-70
2023/05/31 04:45:48;;;;;;;6.20;2.47;;;;;;;11.33;73.78;101850.53;5039219;28;20233;-70
2023/05/31 04:48:16;;;;;;;6.10;2.70;;;;;;;11.44;73.46;101848.44;5035862;28;20209;-70
2023/05/31 04:50:44;;;;;;;4.37;2.47;;;;;;;11.56;72.95;101846.84;5034582;28;20217;-70
2023/05/31 04:53:10;;;;;;;6.40;2.50;;;;;;;11.67;72.68;101842.88;5047749;28;20224;-70
2023/05/31 04:55:37;;;;;;;2.73;2.20;;;;;;;11.80;72.34;101843.91;5047103;28;20707;-70
2023/05/31 04:58:07;;;;;;;5.00;2.33;;;;;;;11.90;70.52;101841.78;5032093;28;20229;-70
2023/05/31 05:00:34;;;;;;;6.63;2.40;;;;;;;12.01;70.86;101847.59;5031548;28;20230;-70
2023/05/31 05:03:10;;;;;;;4.63;2.30;;;;;;;12.15;70.71;101849.06;5033643;28;20314;-70
2023/05/31 05:05:37;;;;;;;4.37;2.30;;;;;;;12.26;70.34;101839.75;5031614;28;20199;-70
2023/05/31 05:08:04;;;;;;;3.30;2.27;;;;;;;12.38;69.71;101847.13;5031408;28;20671;-70
2023/05/31 05:10:31;;;;;;;4.20;2.30;;;;;;;12.48;67.83;101834.38;5037330;28;20200;-70
2023/05/31 05:12:57;;;;;;;4.73;2.60;;;;;;;12.57;67.38;101842.38;5028982;28;20231;-70
2023/05/31 05:15:25;;;;;;;3.20;2.23;;;;;;;12.64;68.28;101840.84;5031151;28;20220;-70
2023/05/31 05:17:51;;;;;;;4.13;2.37;;;;;;;12.75;68.30;101842.13;5048099;28;20196;-70
2023/05/31 05:20:19;;;;;;;4.60;2.17;;;;;;;12.84;67.41;101850.84;5034127;28;20208;-70
2023/05/31 05:22:51;;;;;;;3.70;2.33;;;;;;;12.92;66.86;101844.00;5034013;28;20234;-70
2023/05/31 05:25:20;;;;;;;4.80;2.30;;;;;;;13.00;67.04;101853.88;5030825;28;20185;-70
2023/05/31 05:27:47;;;;;;;3.03;2.17;;;;;;;13.09;65.78;101847.47;5038789;28;20207;-70
2023/05/31 05:30:14;;;;;;;6.83;3.10;;;;;;;13.18;66.03;101842.97;5030974;28;20702;-70
2023/05/31 05:32:40;;;;;;;4.83;2.43;;;;;;;13.26;65.18;101844.06;5037992;28;20224;-70
2023/05/31 05:35:08;;;;;;;3.90;2.20;;;;;;;13.34;65.45;101840.59;5032653;28;20227;-70
2023/05/31 05:37:35;;;;;;;3.73;2.20;;;;;;;13.44;65.05;101851.69;5032091;28;20688;-70
2023/05/31 05:40:01;;;;;;;5.30;2.43;;;;;;;13.50;64.08;101844.38;5028956;28;20200;-70
2023/05/31 05:42:31;;;;;;;4.23;2.27;;;;;;;13.58;64.04;101847.00;5038285;28;20638;-70
2023/05/31 05:44:58;;;;;;;4.10;2.43;;;;;;;13.65;63.76;101842.00;5050884;28;20193;-70
2023/05/31 05:47:24;;;;;;;4.87;2.27;;;;;;;13.74;63.79;101841.97;5024982;28;20202;-70
2023/05/31 05:49:53;;;;;;;6.37;2.23;;;;;;;13.81;63.74;101843.06;5029897;28;20207;-70
2023/05/31 05:52:19;;;;;;;4.47;2.20;;;;;;;13.89;63.93;101838.81;5047369;28;20278;-70
2023/05/31 05:54:46;;;;;;;5.90;2.80;;;;;;;14.00;64.23;101842.69;5048575;28;20201;-70
2023/05/31 05:57:12;;;;;;;4.60;2.10;;;;;;;14.08;62.80;101829.38;5035528;28;20222;-70
2023/05/31 05:59:44;;;;;;;3.97;2.30;;;;;;;14.18;62.82;101837.00;5029977;28;20205;-70
2023/05/31 06:02:19;;;;;;;9.33;2.93;;;;;;;14.26;62.43;101838.88;5025722;28;20317;-70
2023/05/31 06:04:47;;;;;;;5.53;2.50;;;;;;;14.37;61.06;101833.97;5024357;28;20209;-70
2023/05/31 06:07:13;;;;;;;4.13;2.47;;;;;;;14.46;61.44;101840.81;5041174;28;20203;-70
2023/05/31 06:09:39;;;;;;;3.47;2.20;;;;;;;14.55;61.42;101843.44;5042967;28;20772;-70
2023/05/31 06:12:07;;;;;;;4.53;2.40;;;;;;;14.66;61.14;101841.97;5036752;28;20364;-70
2023/05/31 06:14:37;;;;;;;4.97;2.60;;;;;;;14.77;60.64;101843.16;5030014;28;20204;-71
2023/05/31 06:17:05;;;;;;;3.53;2.47;;;;;;;14.88;60.40;101849.63;5028290;28;20211;-70
2023/05/31 06:19:33;;;;;;;4.83;1.93;;;;;;;14.98;60.18;101852.72;5026763;28;20213;-70
2023/05/31 06:22:00;;;;;;;6.77;2.30;;;;;;;15.09;59.84;101851.22;5032803;28;20222;-70
2023/05/31 06:24:26;;;;;;;3.63;1.97;;;;;;;15.20;59.82;101851.59;5024609;28;20204;-71
2023/05/31 06:26:53;;;;;;;4.63;2.33;;;;;;;15.29;60.19;101845.13;5046197;28;20534;-71
2023/05/31 06:29:25;;;;;;;4.60;2.10;;;;;;;15.39;59.40;101849.28;5031333;28;20195;-71
2023/05/31 06:31:55;;;;;;;4.40;2.30;;;;;;;15.50;58.75;101842.44;5044701;28;20290;-70
2023/05/31 06:34:23;;;;;;;6.33;2.27;;;;;;;15.62;58.77;101851.25;5025468;28;20258;-70
2023/05/31 06:36:52;;;;;;;3.57;2.30;;;;;;;15.72;58.12;101848.19;5029871;28;20215;-71
2023/05/31 06:39:19;;;;;;;6.20;2.67;;;;;;;15.81;57.36;101846.22;5035342;28;20204;-71
2023/05/31 06:41:45;;;;;;;5.83;2.27;;;;;;;15.91;56.09;101845.00;5031623;28;20290;-71
2023/05/31 06:44:35;;;;;;;3.20;2.03;;;;;;;16.03;57.14;101848.47;5044374;28;20205;-71
2023/05/31 06:47:12;;;;;;;3.30;2.10;;;;;;;16.16;57.36;101849.28;5039287;28;20196;-70
2023/05/31 06:49:59;;;;;;;4.77;2.40;;;;;;;16.29;57.46;101838.28;5045659;28;20197;-70
2023/05/31 06:52:51;;;;;;;4.27;2.27;;;;;;;16.42;56.90;101849.75;5040295;28;20266;-71
2023/05/31 06:55:40;;;;;;;6.53;2.67;;;;;;;16.55;56.82;101844.09;5032921;28;20228;-70
2023/05/31 06:58:09;;;;;;;6.73;2.43;;;;;;;16.66;56.66;101841.75;5031969;28;20234;-71
2023/05/31 07:00:37;;;;;;;7.00;2.60;;;;;;;16.76;56.18;101835.97;5030415;28;20270;-71
2023/05/31 07:03:03;;;;;;;4.10;2.30;;;;;;;16.87;55.45;101837.81;5033632;28;20236;-71
2023/05/31 07:05:31;;;;;;;6.90;2.10;;;;;;;16.98;55.92;101843.47;5033356;28;20197;-70
2023/05/31 07:07:58;;;;;;;7.27;2.37;;;;;;;17.06;54.68;101839.88;5031040;28;20206;-70
2023/05/31 07:10:26;;;;;;;6.13;2.60;;;;;;;17.15;54.19;101835.97;5028171;28;20770;-70
2023/05/31 07:12:53;;;;;;;7.40;2.70;;;;;;;17.27;53.91;101843.94;5030644;28;20326;-71
2023/05/31 07:15:19;;;;;;;3.57;2.10;;;;;;;17.35;53.89;101839.56;5030224;28;20209;-71
2023/05/31 07:17:46;;;;;;;5.70;2.33;;;;;;;17.46;53.47;101833.44;5030980;28;20199;-71
2023/05/31 07:20:13;;;;;;;6.17;2.77;;;;;;;17.55;53.75;101834.03;5024268;28;20210;-71
2023/05/31 07:22:40;;;;;;;5.77;2.33;;;;;;;17.66;51.76;101829.78;5046236;28;20771;-71
2023/05/31 07:25:08;;;;;;;4.50;2.30;;;;;;;17.74;52.46;101831.50;5048362;28;20230;-71
2023/05/31 07:27:34;;;;;;;5.73;2.10;;;;;;;17.83;52.33;101831.34;5047202;28;20724;-71
2023/05/31 07:30:01;;;;;;;6.73;2.53;;;;;;;17.91;53.14;101827.72;5047587;28;20203;-71
2023/05/31 07:32:27;;;;;;;6.33;2.30;;;;;;;18.03;51.92;101830.31;5045390;28;20223;-71
2023/05/31 07:34:53;;;;;;;6.40;2.30;;;;;;;18.13;53.52;101829.81;5041004;28;20214;-71
2023/05/31 07:37:20;;;;;;;4.43;2.10;;;;;;;18.24;52.76;101825.47;5043667;28;20214;-71
2023/05/31 07:39:47;;;;;;;4.13;2.23;;;;;;;18.36;52.65;101826.19;5040536;28;20200;-71
2023/05/31 07:42:13;;;;;;;4.27;2.40;;;;;;;18.49;52.60;101834.88;5053143;28;20223;-71
2023/05/31 07:44:40;;;;;;;4.87;2.27;;;;;;;18.58;51.60;101828.22;5058713;28;20274;-71
2023/05/31 07:47:07;;;;;;;5.10;2.60;;;;;;;18.68;50.36;101825.00;5052327;28;20202;-71
2023/05/31 07:49:33;;;;;;;4.63;2.10;;;;;;;18.77;49.84;101824.78;5052105;28;20199;-71
2023/05/31 07:52:00;;;;;;;5.83;2.47;;;;;;;18.84;48.77;101820.38;5056236;28;20900;-71
2023/05/31 07:54:27;;;;;;;4.73;2.53;;;;;;;18.93;47.70;101815.59;5051534;28;20816;-70
2023/05/31 07:56:55;;;;;;;3.60;2.20;;;;;;;18.98;49.06;101809.97;5051557;28;20214;-71
2023/05/31 07:59:21;;;;;;;8.50;2.47;;;;;;;19.07;49.30;101810.53;5044627;28;20249;-71
2023/05/31 08:01:48;;;;;;;5.33;2.37;;;;;;;19.19;50.13;101823.78;5049751;28;20223;-71
2023/05/31 08:04:15;;;;;;;4.30;2.10;;;;;;;19.29;50.37;101814.41;5039786;28;20578;-71
2023/05/31 08:06:42;;;;;;;3.87;2.30;;;;;;;19.39;47.16;101813.84;5050742;28;20200;-71
2023/05/31 08:09:09;;;;;;;3.73;2.17;;;;;;;19.48;48.39;101806.38;5043824;28;20688;-71
2023/05/31 08:11:36;;;;;;;4.33;2.20;;;;;;;19.58;49.65;101808.47;5051990;28;20249;-71
2023/05/31 08:14:04;;;;;;;4.47;2.30;;;;;;;19.70;48.54;101803.72;5051157;28;20207;-71
2023/05/31 08:16:31;;;;;;;6.33;2.40;;;;;;;19.84;46.81;101805.84;5033426;28;20682;-71
2023/05/31 08:18:58;;;;;;;6.03;2.70;;;;;;;19.95;47.09;101801.44;5051051;28;20195;-71
2023/05/31 08:21:24;;;;;;;5.67;1.70;;;;;;;20.04;46.66;101802.75;5052802;28;20227;-71
2023/05/31 08:23:51;;;;;;;6.03;2.13;;;;;;;20.15;46.06;101797.56;5049671;28;20199;-71
2023/05/31 08:26:17;;;;;;;1.90;1.40;;;;;;;20.26;44.04;101793.94;5053977;28;20210;-71
2023/05/31 08:28:43;;;;;;;5.47;2.00;;;;;;;20.32;46.04;101794.38;5049197;28;20195;-71
2023/05/31 08:31:11;;;;;;;3.03;1.93;;;;;;;20.39;46.25;101795.25;5051510;28;20207;-71
2023/05/31 08:33:40;;;;;;;3.80;2.00;;;;;;;20.51;46.75;101788.91;5050447;28;20672;-71
2023/05/31 08:36:06;;;;;;;3.07;1.73;;;;;;;20.65;44.85;101797.16;5050624;28;20223;-71
2023/05/31 08:38:35;;;;;;;5.17;1.73;;;;;;;20.76;44.76;101798.06;5046471;28;20195;-71
2023/05/31 08:41:03;;;;;;;1.73;1.57;;;;;;;20.88;44.05;101792.47;5047888;28;20678;-71
2023/05/31 08:43:30;;;;;;;3.57;1.70;;;;;;;20.97;44.11;101785.72;5051754;28;20702;-71
2023/05/31 08:45:57;;;;;;;2.50;1.50;;;;;;;21.09;42.01;101790.03;5049066;28;20327;-71
2023/05/31 08:48:29;;;;;;;2.10;1.40;;;;;;;21.17;44.67;101789.75;5048196;28;20265;-71
2023/05/31 08:50:56;;;;;;;3.10;1.70;;;;;;;21.27;44.51;101781.03;5048324;28;20195;-71
2023/05/31 08:53:24;;;;;;;5.27;1.80;;;;;;;21.42;43.59;101787.34;5047239;28;20791;-71
2023/05/31 08:55:52;;;;;;;3.03;1.47;;;;;;;21.54;42.38;101784.38;5043602;28;20196;-71
2023/05/31 08:58:19;;;;;;;3.80;1.80;;;;;;;21.65;41.65;101779.88;5050171;28;20234;-71
2023/05/31 09:00:46;;;;;;;2.23;1.67;;;;;;;21.70;40.29;101777.66;5044739;28;20196;-71
2023/05/31 09:03:13;;;;;;;2.97;2.13;;;;;;;21.79;41.87;101780.03;5046073;28;20577;-71
2023/05/31 09:05:41;;;;;;;3.40;1.70;;;;;;;21.86;40.72;101772.78;5029759;28;20685;-71
2023/05/31 09:08:07;;;;;;;4.07;1.87;;;;;;;21.92;38.89;101779.38;5045716;28;20686;-71
2023/05/31 09:10:34;;;;;;;2.63;1.60;;;;;;;22.00;40.67;101782.88;5044133;28;20642;-71
2023/05/31 09:13:01;;;;;;;4.63;1.67;;;;;;;22.08;39.93;101776.41;5047713;28;20211;-71
2023/05/31 09:15:28;;;;;;;3.97;1.70;;;;;;;22.13;36.49;101776.84;5047846;28;20210;-71
2023/05/31 09:17:56;;;;;;;3.87;1.70;;;;;;;22.20;40.63;101770.72;5044750;28;20223;-71
2023/05/31 09:20:31;;;;;;;1.90;1.30;;;;;;;22.29;40.92;101776.53;5046982;28;22028;-71
2023/05/31 09:23:03;;;;;;;1.77;1.30;;;;;;;22.41;41.05;101770.88;5041673;28;20276;-71
2023/05/31 09:25:29;;;;;;;4.00;1.37;;;;;;;22.53;41.22;101774.03;5043863;28;20195;-71
2023/05/31 09:28:00;;;;;;;3.73;1.40;;;;;;;22.64;41.20;101774.06;5051008;28;20198;-71
2023/05/31 09:30:26;;;;;;;2.50;1.40;;;;;;;22.75;40.01;101775.66;5044172;28;20202;-71
2023/05/31 09:32:54;;;;;;;2.77;1.33;;;;;;;22.81;36.22;101768.75;5045561;28;20227;-71
2023/05/31 09:35:24;;;;;;;2.60;1.20;;;;;;;22.88;37.58;101770.72;5055777;28;20214;-71
2023/05/31 09:37:52;;;;;;;3.27;1.37;;;;;;;22.94;40.33;101764.59;5044373;28;20318;-71
2023/05/31 09:40:24;;;;;;;2.67;1.45;;;;;;;23.02;36.21;101760.00;5052083;28;20574;-71
2023/05/31 09:42:52;;;;;;;3.72;1.45;;;;;;;23.09;39.13;101763.47;5043973;28;20298;-71
2023/05/31 09:45:19;;;;;;;3.78;1.60;;;;;;;23.16;36.92;101744.63;5046209;28;20196;-71
2023/05/31 09:47:46;;;;;;;2.38;1.30;;;;;;;23.25;38.41;101741.59;5049327;28;20206;-71
2023/05/31 09:50:15;;;;;;;5.47;1.42;;;;;;;23.31;35.02;101737.34;5046152;28;20207;-70
2023/05/31 09:52:44;;;;;;;1.93;1.27;;;;;;;23.38;35.74;101735.44;5045694;28;20786;-71
2023/05/31 09:55:11;;;;;;;5.78;1.67;;;;;;;23.48;37.63;101735.84;5044316;28;20286;-71
2023/05/31 09:57:41;;;;;;;1.73;1.20;;;;;;;23.54;36.69;101722.34;5031418;28;20655;-71
2023/05/31 10:00:15;;;;;;;3.92;1.42;;;;;;;23.63;35.31;101733.53;5044701;28;20234;-71
2023/05/31 10:02:43;;;;;;;3.83;1.23;;;;;;;23.69;37.80;101720.44;5044762;28;20223;-71
2023/05/31 10:05:10;;;;;;;2.67;1.40;;;;;;;23.77;37.16;101730.06;5043126;28;20273;-71
2023/05/31 10:07:37;;;;;;;2.97;1.30;;;;;;;23.84;35.93;101727.34;5047970;28;20200;-71
2023/05/31 10:10:04;;;;;;;1.58;1.17;;;;;;;23.88;34.13;101721.97;5045064;28;20573;-71
2023/05/31 10:12:34;;;;;;;1.65;1.17;;;;;;;23.90;34.82;101725.06;5041906;28;20226;-71
2023/05/31 10:15:04;;;;;;;3.28;1.20;;;;;;;23.94;35.59;101721.19;5046659;28;20203;-71
2023/05/31 10:17:38;;;;;;;1.88;1.13;;;;;;;24.00;35.39;101716.97;5043530;28;20215;-71
2023/05/31 10:20:08;;;;;;;2.38;1.38;;;;;;;24.08;34.94;101717.72;5041272;28;20199;-71
2023/05/31 10:22:39;;;;;;;1.75;1.17;;;;;;;24.08;31.45;101707.69;5041622;28;20250;-71
2023/05/31 10:25:10;;;;;;;2.25;1.23;;;;;;;24.11;33.95;101712.31;5043667;28;20202;-71
2023/05/31 10:27:38;;;;;;;3.13;1.45;;;;;;;24.16;34.94;101708.44;5042576;28;20203;-71
2023/05/31 10:30:10;;;;;;;2.63;1.30;;;;;;;24.23;32.25;101698.38;5045366;28;20221;-71
2023/05/31 10:32:43;;;;;;;2.20;1.27;;;;;;;24.23;33.20;101695.69;5048022;28;20758;-71
2023/05/31 10:35:10;;;;;;;2.85;1.35;;;;;;;24.27;31.92;101689.09;5043175;28;20629;-71
2023/05/31 10:37:40;;;;;;;3.10;1.20;;;;;;;24.34;33.91;101693.72;5045200;28;20207;-71
2023/05/31 10:40:12;;;;;;;4.35;1.80;;;;;;;24.38;35.18;101689.06;5044632;28;20685;-71
2023/05/31 10:42:47;;;;;;;3.80;1.67;;;;;;;24.45;33.91;101677.50;5043888;28;20223;-71
2023/05/31 10:45:16;;;;;;;2.05;1.05;;;;;;;24.46;31.93;101674.38;5043342;28;20642;-71
2023/05/31 10:47:50;;;;;;;1.45;1.15;;;;;;;24.45;31.93;101667.44;5033599;28;20223;-71
2023/05/31 10:50:20;;;;;;;2.10;1.20;;;;;;;24.52;32.00;101678.97;5044786;28;20203;-71
2023/05/31 10:52:49;;;;;;;2.60;1.30;;;;;;;24.52;30.34;101674.75;5028998;28;21705;-71
2023/05/31 10:55:16;;;;;;;2.85;1.50;;;;;;;24.55;31.96;101665.88;5044872;28;20803;-70
2023/05/31 10:57:42;;;;;;;2.03;1.50;;;;;;;24.52;31.04;101667.44;5042070;28;20211;-71
2023/05/31 11:00:11;;;;;;;2.38;1.20;;;;;;;24.50;32.56;101663.56;5046987;28;20233;-71
2023/05/31 11:02:47;;;;;;;2.30;1.40;;;;;;;24.50;33.02;101658.19;5041015;28;20239;-71
2023/05/31 11:05:21;;;;;;;4.65;1.48;;;;;;;24.52;32.22;101653.13;5044683;28;20543;-71
2023/05/31 11:07:48;;;;;;;3.10;1.40;;;;;;;24.55;31.20;101657.75;5046226;28;20272;-71
2023/05/31 11:10:25;;;;;;;2.30;1.20;;;;;;;24.57;31.81;101653.50;5044490;28;20210;-71
2023/05/31 11:12:51;;;;;;;3.15;1.33;;;;;;;24.64;33.14;101658.13;5041995;28;20218;-71
2023/05/31 11:15:17;;;;;;;3.05;1.30;;;;;;;24.66;32.05;101650.41;5045575;28;20207;-71
2023/05/31 11:17:53;;;;;;;1.88;1.33;;;;;;;24.70;31.85;101660.00;5044648;28;20216;-71
2023/05/31 11:20:19;;;;;;;2.78;1.50;;;;;;;24.74;31.52;101643.78;5043583;28;20841;-71
2023/05/31 11:22:47;;;;;;;1.90;1.30;;;;;;;24.78;30.18;101648.00;5044095;28;20212;-71
2023/05/31 11:25:20;;;;;;;1.50;1.23;;;;;;;24.81;30.51;101647.19;5045636;28;20202;-71
2023/05/31 11:27:48;;;;;;;1.75;1.23;;;;;;;24.81;30.44;101649.91;5041005;28;20733;-71
2023/05/31 11:30:16;;;;;;;2.50;1.33;;;;;;;24.87;29.26;101652.97;5046632;28;20218;-71
2023/05/31 11:32:58;;;;;;;1.65;1.13;;;;;;;24.88;28.78;101652.59;5029187;28;20697;-71